Weather at Norman Y. Mineta San Jose International Airport

Public forecast

Using degrees Fahrenheit for public forecast. Weather courtesy of forecast.io.

Current aviation weather report (METAR) for Norman Y. Mineta San Jose International Airport

Report is more than 6 hours old.

2022/11/14 14:53 (retrieved 2 years ago)

KSJC 141453Z 00000KT 10SM CLR 05/01 A3017 RMK AO2 SLP214 T00500011 52011

Aviation forecast (TAF) for Norman Y. Mineta San Jose International Airport

Forecast is more than 12 hours old.

2023/02/22 18:39 (retrieved 1 year ago)

TAF KSJC 221736Z 2218/2318 31020G30KT P6SM VCSH BKN040 FM230500 25008KT P6SM VCSH BKN040 FM231200 18009KT P6SM -SHRA SCT025 OVC040